Time;durP1;ratioP1;P1;durP2;ratioP2;P2;SDS_P1;SDS_P2;PMS_P1;PMS_P2;Temp;Humidity;BMP_temperature;BMP_pressure;BME280_temperature;BME280_humidity;BME280_pressure;Samples;Min_cycle;Max_cycle;Signal;HPM_P1;HPM_P2
2023/06/27 00:01:25;;;;;;;4.05;2.50;;;;;;;21.61;59.83;96968.56;5067196;28;20203;-62
2023/06/27 00:03:52;;;;;;;3.67;2.17;;;;;;;21.57;60.32;96972.72;5055891;28;20211;-61
2023/06/27 00:06:19;;;;;;;3.90;2.63;;;;;;;21.45;58.93;96976.19;5054597;28;20227;-62
2023/06/27 00:08:46;;;;;;;3.90;2.20;;;;;;;21.47;59.62;96974.94;5054756;28;20206;-64
2023/06/27 00:11:12;;;;;;;3.08;2.22;;;;;;;21.51;60.05;96978.06;5060447;28;20210;-62
2023/06/27 00:13:41;;;;;;;3.30;2.10;;;;;;;21.50;59.89;96979.94;5054614;28;20230;-63
2023/06/27 00:16:13;;;;;;;3.47;2.38;;;;;;;21.47;59.52;96977.63;5053849;28;20550;-62
2023/06/27 00:18:40;;;;;;;3.13;2.28;;;;;;;21.45;59.38;96974.31;5054458;28;20260;-62
2023/06/27 00:21:06;;;;;;;5.95;2.28;;;;;;;21.44;60.24;96979.91;5054468;28;20246;-62
2023/06/27 00:23:34;;;;;;;2.28;2.08;;;;;;;21.44;59.98;96980.72;5054817;28;20216;-61
2023/06/27 00:26:02;;;;;;;3.38;1.92;;;;;;;21.39;62.15;96980.53;5071506;28;20231;-62
2023/06/27 00:28:29;;;;;;;7.45;2.10;;;;;;;21.35;59.90;96984.66;5065911;28;20207;-62
2023/06/27 00:30:56;;;;;;;3.42;2.20;;;;;;;21.33;62.90;96978.63;5074230;28;20210;-62
2023/06/27 00:33:24;;;;;;;2.42;1.88;;;;;;;21.26;61.30;96983.16;5058698;28;20211;-62
2023/06/27 00:35:50;;;;;;;3.40;1.80;;;;;;;21.24;60.96;96987.91;5058948;28;20210;-62
2023/06/27 00:38:17;;;;;;;2.60;1.95;;;;;;;21.21;63.35;96981.09;5058154;28;20231;-63
2023/06/27 00:40:44;;;;;;;3.08;2.00;;;;;;;21.23;62.77;96983.56;5058551;28;20210;-62
2023/06/27 00:43:10;;;;;;;2.97;1.98;;;;;;;21.15;62.93;96976.50;5057773;28;20207;-62
2023/06/27 00:45:37;;;;;;;2.38;2.17;;;;;;;21.16;63.00;96970.09;5058423;28;20562;-62
2023/06/27 00:48:04;;;;;;;2.15;1.85;;;;;;;21.18;60.77;96988.72;5058086;28;20207;-62
2023/06/27 00:50:32;;;;;;;2.60;1.95;;;;;;;21.12;59.98;96990.34;5048551;28;20212;-62
2023/06/27 00:52:59;;;;;;;2.15;1.95;;;;;;;21.12;60.08;96986.81;5044192;28;20202;-63
2023/06/27 00:55:26;;;;;;;4.25;1.90;;;;;;;21.08;62.39;96996.31;5049290;28;20227;-62
2023/06/27 00:57:53;;;;;;;3.55;2.28;;;;;;;21.08;62.79;96990.94;5067610;28;20317;-62
2023/06/27 01:00:22;;;;;;;3.03;2.10;;;;;;;21.06;62.02;96995.66;5047935;28;20208;-62
2023/06/27 01:02:48;;;;;;;2.22;1.98;;;;;;;21.05;61.47;96994.00;5057771;28;20290;-61
2023/06/27 01:05:17;;;;;;;2.25;1.77;;;;;;;21.02;61.49;96994.41;5077604;28;20206;-63
2023/06/27 01:07:49;;;;;;;2.00;1.75;;;;;;;20.97;61.05;97003.09;5055706;28;20216;-62
2023/06/27 01:10:21;;;;;;;2.50;2.00;;;;;;;20.93;59.87;96999.13;5059874;28;20226;-62
2023/06/27 01:12:52;;;;;;;5.60;1.95;;;;;;;20.82;60.46;97000.53;5053351;28;20207;-62
2023/06/27 01:15:19;;;;;;;2.65;1.90;;;;;;;20.83;59.56;97002.16;5050094;28;20257;-62
2023/06/27 01:17:45;;;;;;;3.85;2.10;;;;;;;20.82;60.03;97000.53;5070823;28;20535;-63
2023/06/27 01:20:13;;;;;;;3.50;1.98;;;;;;;20.74;60.77;97008.72;5070240;28;20221;-62
2023/06/27 01:22:43;;;;;;;2.42;2.03;;;;;;;20.76;59.95;97019.31;5063561;28;20337;-62
2023/06/27 01:25:12;;;;;;;4.57;1.90;;;;;;;20.76;60.80;97006.66;5064072;28;20209;-62
2023/06/27 01:27:39;;;;;;;2.40;1.70;;;;;;;20.68;60.08;97019.44;5069755;28;20263;-62
2023/06/27 01:30:08;;;;;;;3.90;2.05;;;;;;;20.59;59.18;97013.38;5070298;28;20210;-63
2023/06/27 01:32:42;;;;;;;3.35;1.70;;;;;;;20.65;60.99;97009.09;5056829;28;20556;-62
2023/06/27 01:35:20;;;;;;;2.60;1.95;;;;;;;20.62;60.57;97015.69;5043158;28;20228;-62
2023/06/27 01:37:52;;;;;;;2.95;1.98;;;;;;;20.56;61.38;97004.88;5047166;28;20203;-62
2023/06/27 01:40:21;;;;;;;4.10;1.77;;;;;;;20.36;60.81;97020.88;5056040;28;20225;-62
2023/06/27 01:42:51;;;;;;;2.90;2.17;;;;;;;20.38;62.07;97018.81;5056811;28;20207;-63
2023/06/27 01:45:19;;;;;;;2.67;1.67;;;;;;;20.32;61.12;97011.53;5044729;28;20208;-62
2023/06/27 01:47:46;;;;;;;3.05;1.65;;;;;;;20.33;60.91;97019.38;5049414;28;20257;-62
2023/06/27 01:50:13;;;;;;;5.80;2.10;;;;;;;20.31;60.41;97012.56;5049483;28;20207;-62
2023/06/27 01:52:40;;;;;;;4.28;2.20;;;;;;;20.25;60.51;97007.94;5051685;28;20615;-62
2023/06/27 01:55:08;;;;;;;2.58;1.52;;;;;;;20.32;61.08;97008.84;5052947;28;20212;-62
2023/06/27 01:57:36;;;;;;;2.92;1.90;;;;;;;20.29;62.21;97011.94;5049606;28;20211;-62
2023/06/27 02:00:03;;;;;;;4.13;2.33;;;;;;;20.30;61.05;97002.81;5052679;28;20662;-62
2023/06/27 02:02:29;;;;;;;4.65;1.92;;;;;;;20.31;61.62;96999.13;5060036;28;20270;-62
2023/06/27 02:04:56;;;;;;;2.38;1.60;;;;;;;20.31;60.55;97007.19;5045083;28;20207;-62
2023/06/27 02:07:22;;;;;;;3.67;1.98;;;;;;;20.27;61.00;97001.38;5070173;28;20234;-62
2023/06/27 02:09:49;;;;;;;4.00;2.40;;;;;;;20.24;59.00;96996.38;5048183;28;20208;-62
2023/06/27 02:12:15;;;;;;;5.10;1.98;;;;;;;20.26;59.01;96998.88;5039759;28;20208;-62
2023/06/27 02:14:43;;;;;;;2.65;1.92;;;;;;;20.22;61.00;97008.34;5076200;28;20218;-63
2023/06/27 02:17:10;;;;;;;2.83;2.00;;;;;;;20.26;60.44;97006.94;5076936;28;20202;-63
2023/06/27 02:19:37;;;;;;;3.20;2.03;;;;;;;20.29;61.17;96998.50;5069477;28;20534;-61
2023/06/27 02:22:03;;;;;;;2.15;1.92;;;;;;;20.32;60.61;97000.78;5046425;28;20247;-62
2023/06/27 02:24:30;;;;;;;2.17;1.65;;;;;;;20.27;59.32;96992.44;5068222;28;20636;-62
2023/06/27 02:26:58;;;;;;;2.83;1.98;;;;;;;20.18;59.29;96991.78;5073531;28;20521;-63
2023/06/27 02:29:24;;;;;;;2.65;1.95;;;;;;;20.15;60.24;96996.72;5066898;28;20301;-64
2023/06/27 02:31:52;;;;;;;3.55;1.73;;;;;;;20.16;61.33;96988.44;5071250;28;20210;-62
2023/06/27 02:34:18;;;;;;;3.53;2.08;;;;;;;20.14;62.40;96982.44;5058608;28;20670;-62
2023/06/27 02:36:45;;;;;;;2.75;1.88;;;;;;;20.14;63.62;96976.25;5072277;28;20203;-63
2023/06/27 02:39:11;;;;;;;4.03;1.95;;;;;;;20.12;63.49;96976.41;5064612;28;20200;-61
2023/06/27 02:41:39;;;;;;;2.58;1.70;;;;;;;20.11;62.90;96985.53;5069381;28;20210;-65
2023/06/27 02:44:06;;;;;;;2.60;1.75;;;;;;;20.15;63.65;96985.97;5065165;28;20222;-63
2023/06/27 02:46:32;;;;;;;4.38;2.28;;;;;;;20.10;63.57;96980.34;5074182;28;20226;-62
2023/06/27 02:49:01;;;;;;;3.45;1.90;;;;;;;20.05;64.46;96990.84;5070895;28;20207;-62
2023/06/27 02:51:28;;;;;;;4.25;2.20;;;;;;;20.05;63.30;96988.97;5038358;28;20258;-62
2023/06/27 02:53:56;;;;;;;2.20;1.88;;;;;;;19.98;65.71;96985.38;5035633;28;20211;-63
2023/06/27 02:56:22;;;;;;;3.47;1.60;;;;;;;19.95;63.64;96993.00;5057260;28;20206;-61
2023/06/27 02:58:49;;;;;;;2.40;1.80;;;;;;;19.99;64.66;96989.75;5064660;28;20226;-62
2023/06/27 03:01:15;;;;;;;3.08;2.03;;;;;;;19.99;64.46;96987.06;5072859;28;20202;-62
2023/06/27 03:03:45;;;;;;;5.00;1.92;;;;;;;19.95;66.12;96990.31;5069663;28;20202;-62
2023/06/27 03:06:13;;;;;;;3.47;2.10;;;;;;;19.92;63.82;96993.38;5061741;28;20258;-62
2023/06/27 03:08:40;;;;;;;3.17;1.80;;;;;;;19.94;64.79;96996.72;5052653;28;20204;-62
2023/06/27 03:11:06;;;;;;;2.45;1.55;;;;;;;19.87;66.83;96994.00;5058043;28;20209;-63
2023/06/27 03:13:33;;;;;;;4.30;1.85;;;;;;;19.90;65.79;96992.75;5044908;28;20200;-62
2023/06/27 03:16:00;;;;;;;2.92;1.70;;;;;;;19.87;66.00;97000.16;5058482;28;20213;-62
2023/06/27 03:18:27;;;;;;;3.95;1.83;;;;;;;19.83;67.04;96998.91;5075057;28;20236;-61
2023/06/27 03:20:54;;;;;;;3.33;1.73;;;;;;;19.82;67.01;97007.97;5070228;28;20215;-61
2023/06/27 03:23:23;;;;;;;4.72;2.33;;;;;;;19.72;63.24;97009.31;5043510;28;20204;-61
2023/06/27 03:25:49;;;;;;;3.05;1.63;;;;;;;19.79;63.88;97007.53;5048803;28;20218;-61
2023/06/27 03:28:17;;;;;;;3.00;1.63;;;;;;;19.78;65.36;97006.69;5047041;28;20221;-62
2023/06/27 03:30:44;;;;;;;2.22;1.65;;;;;;;19.80;65.72;97009.19;5041412;28;20532;-62
2023/06/27 03:33:10;;;;;;;4.28;2.20;;;;;;;19.74;65.45;97005.41;5066927;28;20655;-62
2023/06/27 03:35:38;;;;;;;3.67;2.13;;;;;;;19.76;66.38;97005.22;5069508;28;20879;-62
2023/06/27 03:38:05;;;;;;;2.72;1.58;;;;;;;19.80;64.80;97006.50;5054876;28;20203;-62
2023/06/27 03:40:33;;;;;;;3.08;2.00;;;;;;;19.78;65.66;97006.69;5047721;28;20206;-62
2023/06/27 03:43:00;;;;;;;3.92;2.40;;;;;;;19.72;66.62;97006.63;5048792;28;20203;-61
2023/06/27 03:45:28;;;;;;;5.03;2.38;;;;;;;19.71;65.00;97004.97;5048384;28;20226;-61
2023/06/27 03:47:55;;;;;;;5.18;1.83;;;;;;;19.76;64.92;97008.75;5047717;28;20227;-62
2023/06/27 03:50:22;;;;;;;3.97;1.83;;;;;;;19.83;64.05;97009.66;5057833;28;20636;-62
2023/06/27 03:52:48;;;;;;;3.25;2.22;;;;;;;19.78;63.44;97006.69;5036624;28;20235;-63
2023/06/27 03:55:15;;;;;;;3.42;2.03;;;;;;;19.82;61.44;97001.78;5037661;28;20218;-63
2023/06/27 03:57:43;;;;;;;2.97;1.85;;;;;;;19.81;61.40;97005.47;5035976;28;20219;-61
2023/06/27 04:00:11;;;;;;;4.28;2.05;;;;;;;19.80;61.20;96998.47;5063314;28;20260;-62
2023/06/27 04:02:37;;;;;;;4.97;1.95;;;;;;;19.73;60.75;97002.94;5068154;28;20202;-61
2023/06/27 04:05:04;;;;;;;3.65;2.22;;;;;;;19.71;61.18;96997.75;5050094;28;20632;-61
2023/06/27 04:07:30;;;;;;;2.45;1.67;;;;;;;19.74;61.53;97005.41;5056110;28;20237;-62
2023/06/27 04:09:58;;;;;;;2.15;1.90;;;;;;;19.76;61.75;97003.38;5078652;28;20237;-62
2023/06/27 04:12:25;;;;;;;4.22;2.20;;;;;;;19.80;61.91;97010.00;5053949;28;20208;-62
2023/06/27 04:14:53;;;;;;;4.35;2.25;;;;;;;19.68;62.30;97008.88;5056375;28;20225;-63
2023/06/27 04:17:20;;;;;;;3.85;1.80;;;;;;;19.74;63.48;97008.09;5065405;28;20210;-62
2023/06/27 04:19:46;;;;;;;3.88;2.20;;;;;;;19.67;60.58;97009.03;5078902;28;20210;-62
2023/06/27 04:22:13;;;;;;;3.58;2.20;;;;;;;19.70;60.85;97009.50;5075773;28;20246;-62
2023/06/27 04:24:39;;;;;;;4.53;2.30;;;;;;;19.71;61.29;97004.97;5068036;28;20217;-62
2023/06/27 04:27:09;;;;;;;3.55;2.35;;;;;;;19.71;61.28;97005.78;5075736;28;20225;-62
2023/06/27 04:29:36;;;;;;;4.80;2.40;;;;;;;19.70;61.43;97003.28;5067891;28;20206;-63
2023/06/27 04:32:04;;;;;;;3.08;1.80;;;;;;;19.69;61.95;97001.66;5058752;28;20212;-61
2023/06/27 04:34:35;;;;;;;3.63;1.90;;;;;;;19.72;62.45;96996.72;5048599;28;20521;-62
2023/06/27 04:37:05;;;;;;;3.20;1.88;;;;;;;19.75;62.56;96996.34;5054251;28;20202;-62
2023/06/27 04:39:31;;;;;;;2.83;1.83;;;;;;;19.75;63.27;96995.50;5048268;28;20238;-63
2023/06/27 04:41:58;;;;;;;4.22;1.90;;;;;;;19.76;65.54;96998.00;5047669;28;20647;-63
2023/06/27 04:44:25;;;;;;;2.95;2.20;;;;;;;19.77;62.59;96998.81;5087188;28;20210;-63
2023/06/27 04:46:53;;;;;;;4.40;1.90;;;;;;;19.79;62.82;97005.69;5075995;28;20230;-62
2023/06/27 04:49:21;;;;;;;4.82;2.10;;;;;;;19.80;62.58;97001.16;5067146;28;20554;-63
2023/06/27 04:51:47;;;;;;;2.78;1.77;;;;;;;19.79;63.54;97013.72;5047365;28;20215;-63
2023/06/27 04:54:14;;;;;;;3.55;2.10;;;;;;;19.80;64.31;97019.94;5048287;28;20628;-62
2023/06/27 04:56:41;;;;;;;4.85;2.55;;;;;;;19.74;63.18;97012.63;5052732;28;20217;-62
2023/06/27 04:59:08;;;;;;;3.20;2.00;;;;;;;19.78;63.32;97012.06;5064031;28;20199;-62
2023/06/27 05:01:35;;;;;;;3.90;2.25;;;;;;;19.73;64.69;97014.47;5064283;28;20234;-63
2023/06/27 05:04:05;;;;;;;3.28;2.17;;;;;;;19.77;63.33;97007.72;5057679;28;20199;-62
2023/06/27 05:06:33;;;;;;;2.53;2.03;;;;;;;19.78;64.31;97003.19;5077726;28;20245;-64
2023/06/27 05:09:01;;;;;;;6.00;2.47;;;;;;;19.79;63.21;97002.16;5077484;28;20206;-62
2023/06/27 05:11:27;;;;;;;2.75;2.03;;;;;;;19.73;61.99;97011.78;5076743;28;20207;-62
2023/06/27 05:13:54;;;;;;;5.80;2.03;;;;;;;19.78;62.86;97009.38;5044786;28;20208;-63
2023/06/27 05:16:20;;;;;;;4.80;2.20;;;;;;;19.81;62.92;97008.16;5060714;28;20211;-62
2023/06/27 05:18:48;;;;;;;3.38;2.40;;;;;;;19.83;63.77;97004.28;5047564;28;20203;-62
2023/06/27 05:21:14;;;;;;;4.32;2.30;;;;;;;19.83;63.75;97012.34;5057539;28;20292;-62
2023/06/27 05:23:44;;;;;;;2.50;2.00;;;;;;;19.87;62.25;97002.03;5071844;28;20203;-63
2023/06/27 05:26:11;;;;;;;3.33;2.17;;;;;;;19.90;62.63;97004.34;5046093;28;20238;-62
2023/06/27 05:28:39;;;;;;;5.00;2.03;;;;;;;19.95;63.63;97001.88;5056434;28;20234;-62
2023/06/27 05:31:05;;;;;;;4.80;1.90;;;;;;;20.05;64.47;97006.94;5043161;28;20204;-62
2023/06/27 05:33:33;;;;;;;3.58;2.33;;;;;;;20.13;64.65;96999.56;5051723;28;20207;-61
2023/06/27 05:36:00;;;;;;;4.90;2.35;;;;;;;20.14;66.08;97003.09;5058097;28;20210;-63
2023/06/27 05:38:26;;;;;;;3.88;2.30;;;;;;;20.26;66.12;97004.25;5058395;28;20203;-62
2023/06/27 05:40:54;;;;;;;4.43;2.20;;;;;;;20.30;65.78;97009.03;5058444;28;20767;-63
2023/06/27 05:43:20;;;;;;;5.80;2.45;;;;;;;20.35;65.27;97013.84;5060753;28;20218;-62
2023/06/27 05:45:47;;;;;;;5.95;2.42;;;;;;;20.30;64.02;97016.25;5057307;28;20222;-62
2023/06/27 05:48:13;;;;;;;5.10;2.58;;;;;;;20.32;62.16;97020.44;5056948;28;20302;-62
2023/06/27 05:50:40;;;;;;;4.65;2.42;;;;;;;20.31;62.07;97020.63;5037406;28;20204;-62
2023/06/27 05:53:06;;;;;;;7.63;2.40;;;;;;;20.33;61.41;97021.28;5068125;28;20571;-63
2023/06/27 05:55:33;;;;;;;3.58;1.92;;;;;;;20.33;61.00;97016.69;5058769;28;20211;-62
2023/06/27 05:58:01;;;;;;;3.38;2.10;;;;;;;20.32;60.64;97012.38;5054683;28;20640;-62
2023/06/27 06:00:27;;;;;;;2.70;2.00;;;;;;;20.37;62.01;97006.41;5037390;28;20648;-63
2023/06/27 06:02:56;;;;;;;2.97;1.98;;;;;;;20.42;61.72;97003.97;5049932;28;20539;-62
2023/06/27 06:05:23;;;;;;;4.28;2.38;;;;;;;20.46;61.61;96999.88;5049421;28;20265;-63
2023/06/27 06:07:50;;;;;;;5.97;2.35;;;;;;;20.48;61.18;96994.28;5042760;28;20231;-61
2023/06/27 06:10:17;;;;;;;4.40;2.38;;;;;;;20.56;61.46;96994.97;5070913;28;20217;-64
2023/06/27 06:12:43;;;;;;;3.28;2.10;;;;;;;20.62;63.04;96996.03;5054980;28;20211;-64
2023/06/27 06:15:14;;;;;;;3.92;2.45;;;;;;;20.59;59.40;96994.56;5064076;28;20234;-63
2023/06/27 06:17:40;;;;;;;7.88;2.40;;;;;;;20.57;62.11;97001.19;5054457;28;20212;-62
2023/06/27 06:20:10;;;;;;;3.85;2.13;;;;;;;20.58;59.88;97009.03;5049695;28;20674;-62
2023/06/27 06:22:38;;;;;;;4.28;2.22;;;;;;;20.55;59.86;96998.69;5036266;28;20286;-62
2023/06/27 06:25:05;;;;;;;5.00;2.28;;;;;;;20.52;62.19;96999.06;5063414;28;20207;-62
2023/06/27 06:27:32;;;;;;;2.47;2.08;;;;;;;20.52;62.25;97007.13;5074227;28;20222;-61
2023/06/27 06:29:59;;;;;;;4.85;2.22;;;;;;;20.50;61.75;97001.13;5062943;28;20257;-61
2023/06/27 06:32:27;;;;;;;4.93;2.20;;;;;;;20.40;61.96;97000.66;5060880;28;20295;-62
2023/06/27 06:34:54;;;;;;;2.13;1.95;;;;;;;20.37;63.00;97005.59;5063324;28;20217;-62
2023/06/27 06:37:20;;;;;;;4.40;2.40;;;;;;;20.36;61.33;97007.44;5055810;28;20577;-62
2023/06/27 06:39:46;;;;;;;6.28;2.45;;;;;;;20.30;65.42;96997.47;5068488;28;20210;-62
2023/06/27 06:42:13;;;;;;;4.05;2.33;;;;;;;20.26;68.84;97004.25;5051974;28;20631;-61
2023/06/27 06:44:41;;;;;;;4.65;2.25;;;;;;;20.17;70.04;97002.69;5061852;28;20639;-63
2023/06/27 06:47:08;;;;;;;4.15;2.20;;;;;;;20.21;63.00;96999.44;5067448;28;20215;-62
2023/06/27 06:49:36;;;;;;;4.85;2.00;;;;;;;20.16;63.19;96993.81;5067327;28;20210;-62
2023/06/27 06:52:03;;;;;;;5.53;2.30;;;;;;;20.17;64.88;96989.28;5047411;28;20207;-62
2023/06/27 06:54:30;;;;;;;3.97;2.35;;;;;;;20.19;63.61;96995.28;5066999;28;20227;-64
2023/06/27 06:56:56;;;;;;;4.55;2.38;;;;;;;20.23;64.50;96999.22;5076206;28;20191;-63
2023/06/27 06:59:23;;;;;;;2.95;2.00;;;;;;;20.33;64.33;96999.78;5042536;28;20208;-62
2023/06/27 07:01:49;;;;;;;5.00;1.98;;;;;;;20.35;61.45;97003.09;5047538;28;20215;-62
2023/06/27 07:04:16;;;;;;;2.47;2.00;;;;;;;20.33;60.82;97002.47;5052852;28;20214;-62
2023/06/27 07:06:47;;;;;;;2.60;2.40;;;;;;;20.42;61.65;96997.75;5054065;28;20214;-62
2023/06/27 07:09:14;;;;;;;4.70;2.38;;;;;;;20.50;61.95;97000.31;5062039;28;20229;-63
2023/06/27 07:11:41;;;;;;;3.88;2.28;;;;;;;20.61;61.36;97003.28;5072692;28;20261;-63
2023/06/27 07:14:07;;;;;;;3.55;2.25;;;;;;;20.74;61.17;97006.06;5041307;28;20214;-62
2023/06/27 07:16:33;;;;;;;3.33;2.03;;;;;;;20.99;60.50;96998.31;5065505;28;20202;-62
2023/06/27 07:19:02;;;;;;;4.43;2.05;;;;;;;21.20;60.43;96995.56;5058198;28;20207;-61
2023/06/27 07:21:29;;;;;;;3.45;1.90;;;;;;;21.30;57.59;96992.47;5054894;28;20330;-63
2023/06/27 07:23:58;;;;;;;2.83;2.20;;;;;;;21.31;58.57;96994.16;5045188;28;20209;-62
2023/06/27 07:26:25;;;;;;;5.57;2.45;;;;;;;21.44;59.77;96993.34;5075465;28;20275;-62
2023/06/27 07:28:51;;;;;;;3.35;2.05;;;;;;;21.67;59.76;96988.47;5053583;28;20219;-62
2023/06/27 07:31:18;;;;;;;3.35;2.03;;;;;;;21.82;58.00;96989.91;5045673;28;20203;-63
2023/06/27 07:33:45;;;;;;;6.68;2.65;;;;;;;22.00;57.21;96991.25;5071399;28;20206;-62
2023/06/27 07:36:11;;;;;;;3.78;2.47;;;;;;;22.02;56.21;96997.25;5064914;28;20608;-61
2023/06/27 07:38:38;;;;;;;3.92;2.53;;;;;;;22.14;57.67;96996.41;5051395;28;20196;-62
2023/06/27 07:41:05;;;;;;;4.22;2.10;;;;;;;22.22;56.10;96995.38;5034792;28;20298;-63
2023/06/27 07:43:32;;;;;;;5.43;2.65;;;;;;;22.55;56.26;96995.38;5051892;28;20257;-62
2023/06/27 07:45:58;;;;;;;6.30;2.55;;;;;;;22.88;56.61;96988.09;5044287;28;20204;-63
2023/06/27 07:48:26;;;;;;;4.13;2.05;;;;;;;23.09;56.50;96981.56;5069502;28;20225;-62
2023/06/27 07:50:53;;;;;;;3.47;2.35;;;;;;;23.37;54.74;96981.25;5049459;28;20226;-62
2023/06/27 07:53:19;;;;;;;3.80;1.80;;;;;;;23.49;55.92;96977.69;5065925;28;20552;-62
2023/06/27 07:55:47;;;;;;;3.22;2.05;;;;;;;23.74;55.08;96978.56;5034749;28;20636;-63
2023/06/27 07:58:18;;;;;;;5.22;2.80;;;;;;;23.87;54.39;96987.66;5060735;28;20228;-63
2023/06/27 08:00:44;;;;;;;2.85;1.80;;;;;;;23.91;53.31;96984.31;5061365;28;20655;-62
2023/06/27 08:03:11;;;;;;;3.97;2.15;;;;;;;23.72;53.31;96980.69;5047393;28;20628;-63
2023/06/27 08:05:39;;;;;;;4.38;2.67;;;;;;;23.65;51.71;96979.88;5048022;28;20697;-62
2023/06/27 08:08:05;;;;;;;5.38;2.58;;;;;;;23.50;52.08;96973.09;5067425;28;20781;-63
2023/06/27 08:10:32;;;;;;;2.83;2.08;;;;;;;23.40;52.56;96975.41;5042011;28;20208;-62
2023/06/27 08:12:58;;;;;;;2.85;2.20;;;;;;;23.40;53.89;96968.16;5060497;28;20207;-62
2023/06/27 08:15:29;;;;;;;2.67;1.75;;;;;;;23.17;55.02;96965.13;5068171;28;20641;-62
2023/06/27 08:17:57;;;;;;;3.13;2.33;;;;;;;23.27;54.34;96960.13;5046832;28;20207;-62
2023/06/27 08:20:23;;;;;;;4.53;2.42;;;;;;;23.15;53.13;96962.66;5050179;28;20207;-62
2023/06/27 08:22:51;;;;;;;4.45;2.45;;;;;;;23.07;54.14;96962.91;5063000;28;20238;-61
2023/06/27 08:25:19;;;;;;;4.63;2.33;;;;;;;22.92;55.38;96961.53;5057351;28;20215;-62
2023/06/27 08:27:45;;;;;;;5.80;2.70;;;;;;;22.91;53.15;96959.84;5052132;28;20564;-62
2023/06/27 08:30:13;;;;;;;5.15;2.50;;;;;;;22.89;53.80;96970.84;5056749;28;20206;-62
2023/06/27 08:32:42;;;;;;;2.65;2.08;;;;;;;23.01;54.30;96965.63;5034657;28;20550;-63
2023/06/27 08:35:08;;;;;;;5.10;2.55;;;;;;;22.87;53.51;96961.31;5063836;28;20218;-62
2023/06/27 08:37:37;;;;;;;2.88;2.20;;;;;;;22.85;55.17;96966.91;5054848;28;20213;-62
2023/06/27 08:40:04;;;;;;;3.55;2.13;;;;;;;22.83;54.55;96962.78;5071030;28;20211;-62
2023/06/27 08:42:32;;;;;;;4.65;2.05;;;;;;;22.73;56.69;96969.44;5064223;28;20639;-63
2023/06/27 08:44:58;;;;;;;3.13;1.98;;;;;;;22.70;57.08;96969.88;5044302;28;20242;-62
2023/06/27 08:47:27;;;;;;;5.18;2.22;;;;;;;22.68;56.39;96965.72;5074769;28;20206;-63
2023/06/27 08:50:01;;;;;;;4.90;2.53;;;;;;;22.67;56.80;96967.56;5068903;28;20235;-61
2023/06/27 08:52:28;;;;;;;3.97;2.45;;;;;;;22.83;57.85;96962.78;5062931;28;20634;-62
2023/06/27 08:54:56;;;;;;;3.70;2.47;;;;;;;22.93;56.05;96963.16;5044950;28;20212;-62
2023/06/27 08:57:27;;;;;;;4.35;2.10;;;;;;;23.07;56.62;96964.75;5038198;28;20291;-62
2023/06/27 08:59:55;;;;;;;4.82;2.50;;;;;;;23.19;56.94;96963.06;5056798;28;20188;-62
2023/06/27 09:02:21;;;;;;;4.15;2.72;;;;;;;23.26;53.79;96963.84;5066492;28;20230;-61
2023/06/27 09:04:48;;;;;;;4.30;2.17;;;;;;;23.60;55.33;96966.19;5081359;28;20203;-64
2023/06/27 09:07:16;;;;;;;2.72;1.92;;;;;;;23.71;54.70;96952.00;5052735;28;20208;-62
2023/06/27 09:09:44;;;;;;;2.90;2.55;;;;;;;23.86;53.36;96948.16;5077838;28;20686;-62
2023/06/27 09:12:11;;;;;;;5.88;2.65;;;;;;;23.82;53.44;96949.66;5065640;28;20207;-62
2023/06/27 09:14:39;;;;;;;6.97;2.70;;;;;;;23.89;52.71;96947.72;5056166;28;20207;-63
2023/06/27 09:17:06;;;;;;;5.45;2.17;;;;;;;24.06;53.40;96948.84;5058251;28;20218;-62
2023/06/27 09:19:32;;;;;;;5.43;2.60;;;;;;;23.96;50.72;96946.63;5058222;28;20365;-62
2023/06/27 09:22:00;;;;;;;5.05;2.75;;;;;;;24.10;52.54;96945.47;5057987;28;20622;-63
2023/06/27 09:24:30;;;;;;;6.22;2.35;;;;;;;24.09;50.90;96941.13;5058016;28;20215;-62
2023/06/27 09:26:58;;;;;;;4.18;2.55;;;;;;;24.39;50.35;96948.59;5057860;28;20214;-62
2023/06/27 09:29:31;;;;;;;3.50;2.05;;;;;;;24.65;50.75;96938.34;5057106;28;20219;-63
2023/06/27 09:32:06;;;;;;;3.60;2.67;;;;;;;24.50;50.63;96931.63;5057781;28;20211;-63
2023/06/27 09:34:34;;;;;;;4.20;2.28;;;;;;;24.61;52.27;96931.75;5057272;28;20256;-61
2023/06/27 09:37:02;;;;;;;3.97;2.13;;;;;;;24.77;50.73;96931.13;5054687;28;20211;-62
2023/06/27 09:39:30;;;;;;;4.13;2.67;;;;;;;24.90;48.19;96934.78;5057402;28;20203;-62
2023/06/27 09:41:56;;;;;;;6.38;4.10;;;;;;;24.81;49.06;96941.50;5057147;28;20596;-61
2023/06/27 09:44:25;;;;;;;4.93;2.40;;;;;;;24.64;47.82;96939.41;5057200;28;20203;-62
2023/06/27 09:46:53;;;;;;;4.82;2.13;;;;;;;24.56;49.37;96947.78;5057128;28;20218;-62
2023/06/27 09:49:20;;;;;;;4.78;3.08;;;;;;;24.48;50.88;96937.25;5057027;28;20234;-62
2023/06/27 09:51:49;;;;;;;5.95;2.75;;;;;;;24.51;52.14;96944.13;5050912;28;20264;-63
2023/06/27 09:54:19;;;;;;;4.55;2.47;;;;;;;24.56;51.52;96949.66;5067310;28;20211;-61
2023/06/27 09:56:51;;;;;;;4.07;2.63;;;;;;;24.59;51.29;96949.22;5053058;28;20539;-62
2023/06/27 09:59:20;;;;;;;3.50;2.75;;;;;;;24.31;51.57;96944.28;5076416;28;20263;-62
2023/06/27 10:01:49;;;;;;;4.07;2.20;;;;;;;24.49;51.79;96941.63;5074940;28;20233;-62
2023/06/27 10:04:16;;;;;;;8.75;2.88;;;;;;;24.65;51.67;96938.34;5070149;28;20206;-62
2023/06/27 10:06:44;;;;;;;3.45;2.30;;;;;;;24.71;50.16;96936.63;5055604;28;20656;-62
2023/06/27 10:09:12;;;;;;;2.85;2.08;;;;;;;24.87;50.55;96935.25;5056153;28;20679;-61
2023/06/27 10:11:38;;;;;;;3.17;2.22;;;;;;;25.08;51.37;96945.59;5054113;28;20310;-61
2023/06/27 10:14:06;;;;;;;4.15;2.50;;;;;;;24.99;49.92;96939.66;5052564;28;20513;-61
2023/06/27 10:16:33;;;;;;;4.43;2.45;;;;;;;24.92;50.22;96933.50;5056710;28;20211;-61
2023/06/27 10:19:01;;;;;;;3.53;2.45;;;;;;;24.66;51.36;96933.75;5056544;28;20203;-61
2023/06/27 10:21:28;;;;;;;3.72;2.70;;;;;;;24.41;50.01;96931.09;5056230;28;20251;-62
2023/06/27 10:23:58;;;;;;;3.75;2.40;;;;;;;24.29;49.84;96932.88;5056309;28;20206;-62
2023/06/27 10:26:28;;;;;;;4.15;2.40;;;;;;;24.27;50.42;96929.56;5056449;28;20203;-62
2023/06/27 10:28:56;;;;;;;4.43;2.15;;;;;;;24.35;51.73;96926.59;5056447;28;20211;-62
2023/06/27 10:31:44;;;;;;;2.92;2.40;;;;;;;24.37;50.74;96919.09;5045697;28;20219;-63
2023/06/27 10:34:17;;;;;;;4.15;2.75;;;;;;;24.55;50.31;96916.38;5044282;28;20207;-62
2023/06/27 10:36:52;;;;;;;3.05;2.10;;;;;;;24.71;50.12;96921.22;5056946;28;20210;-63
2023/06/27 10:39:26;;;;;;;5.22;2.55;;;;;;;24.80;52.55;96923.63;5049110;28;20260;-62
2023/06/27 10:41:56;;;;;;;2.75;2.25;;;;;;;24.36;51.98;96913.91;5045338;28;20693;-62
2023/06/27 10:44:23;;;;;;;5.35;2.60;;;;;;;24.20;50.28;96917.97;5046976;28;20298;-62
2023/06/27 10:47:27;;;;;;;4.13;2.70;;;;;;;24.06;51.67;96909.13;5056644;28;20207;-61
2023/06/27 10:49:54;;;;;;;6.90;2.78;;;;;;;24.20;51.00;96909.88;5053435;28;20251;-63
2023/06/27 10:52:21;;;;;;;4.25;2.13;;;;;;;24.20;52.20;96908.00;5037977;28;20203;-64
2023/06/27 10:55:20;;;;;;;3.55;2.30;;;;;;;24.39;51.61;96895.34;5046963;28;20213;-62
2023/06/27 10:57:49;;;;;;;4.70;2.78;;;;;;;24.77;51.00;96904.09;5061257;28;20221;-62
2023/06/27 11:00:17;;;;;;;4.07;2.45;;;;;;;24.92;49.37;96897.50;5050514;28;20200;-62
2023/06/27 11:02:49;;;;;;;4.10;2.75;;;;;;;25.14;48.66;96909.50;5059364;28;20218;-62
2023/06/27 11:05:19;;;;;;;4.35;2.30;;;;;;;25.36;52.05;96902.53;5081498;28;20206;-63
2023/06/27 11:07:53;;;;;;;4.57;2.72;;;;;;;25.14;50.64;96904.09;5087727;28;20237;-63
2023/06/27 11:10:23;;;;;;;3.45;2.50;;;;;;;25.17;50.60;96909.03;5073270;28;20213;-62
2023/06/27 11:12:50;;;;;;;3.58;2.60;;;;;;;25.35;50.62;96903.59;5072002;28;20282;-63
2023/06/27 11:15:20;;;;;;;4.45;2.70;;;;;;;25.45;49.82;96897.63;5071129;28;20210;-63
2023/06/27 11:17:47;;;;;;;6.60;3.00;;;;;;;25.38;49.20;96886.88;5061914;28;20645;-62
2023/06/27 11:20:14;;;;;;;3.45;2.40;;;;;;;25.36;51.15;96891.72;5062703;28;20261;-62
2023/06/27 11:22:40;;;;;;;4.60;2.85;;;;;;;25.29;50.38;96895.56;5055519;28;20709;-62
2023/06/27 11:25:14;;;;;;;9.35;2.78;;;;;;;25.13;50.68;96897.00;5056238;28;20380;-61
2023/06/27 11:27:41;;;;;;;5.47;2.92;;;;;;;25.21;50.76;96894.81;5035792;28;20309;-62
2023/06/27 11:30:08;;;;;;;5.35;2.50;;;;;;;25.33;49.08;96894.84;5049578;28;20238;-63
2023/06/27 11:32:35;;;;;;;3.70;2.72;;;;;;;25.27;49.51;96887.66;5047158;28;20204;-63
2023/06/27 11:35:06;;;;;;;4.57;2.80;;;;;;;25.33;50.35;96878.59;5065017;28;20582;-62
2023/06/27 11:37:33;;;;;;;4.70;2.97;;;;;;;25.47;48.84;96880.06;5055383;28;20203;-62